sensor_id;sensor_type;location;lat;lon;timestamp;P1;durP1;ratioP1;P2;durP2;ratioP2
25569;SDS011;17955;45.542;9.238;2022-10-04T00:02:24;29.17;;;17.08;;
25569;SDS011;17955;45.542;9.238;2022-10-04T00:04:58;25.55;;;16.73;;
25569;SDS011;17955;45.542;9.238;2022-10-04T00:07:30;28.50;;;16.20;;
25569;SDS011;17955;45.542;9.238;2022-10-04T00:10:01;25.23;;;16.35;;
25569;SDS011;17955;45.542;9.238;2022-10-04T00:12:33;29.20;;;16.83;;
25569;SDS011;17955;45.542;9.238;2022-10-04T00:15:04;29.25;;;16.15;;
25569;SDS011;17955;45.542;9.238;2022-10-04T00:17:42;27.30;;;16.38;;
25569;SDS011;17955;45.542;9.238;2022-10-04T00:23:39;27.98;;;16.98;;
25569;SDS011;17955;45.542;9.238;2022-10-04T00:29:28;26.63;;;16.70;;
25569;SDS011;17955;45.542;9.238;2022-10-04T00:34:53;29.38;;;17.83;;
25569;SDS011;17955;45.542;9.238;2022-10-04T00:37:21;28.05;;;17.35;;
25569;SDS011;17955;45.542;9.238;2022-10-04T00:39:58;28.88;;;18.98;;
25569;SDS011;17955;45.542;9.238;2022-10-04T00:42:35;28.55;;;18.42;;
25569;SDS011;17955;45.542;9.238;2022-10-04T00:45:13;35.60;;;19.38;;
25569;SDS011;17955;45.542;9.238;2022-10-04T00:48:07;33.30;;;19.05;;
25569;SDS011;17955;45.542;9.238;2022-10-04T00:50:57;26.85;;;18.65;;
25569;SDS011;17955;45.542;9.238;2022-10-04T00:56:24;33.45;;;18.95;;
25569;SDS011;17955;45.542;9.238;2022-10-04T00:59:08;31.38;;;20.80;;
25569;SDS011;17955;45.542;9.238;2022-10-04T01:01:41;38.53;;;20.10;;
25569;SDS011;17955;45.542;9.238;2022-10-04T01:04:12;32.50;;;19.30;;
25569;SDS011;17955;45.542;9.238;2022-10-04T01:06:48;30.90;;;19.08;;
25569;SDS011;17955;45.542;9.238;2022-10-04T01:09:15;36.90;;;21.77;;
25569;SDS011;17955;45.542;9.238;2022-10-04T01:11:46;29.98;;;19.08;;
25569;SDS011;17955;45.542;9.238;2022-10-04T01:14:25;33.55;;;21.48;;
25569;SDS011;17955;45.542;9.238;2022-10-04T01:16:55;34.25;;;20.42;;
25569;SDS011;17955;45.542;9.238;2022-10-04T01:19:25;37.40;;;21.88;;
25569;SDS011;17955;45.542;9.238;2022-10-04T01:21:57;37.85;;;21.27;;
25569;SDS011;17955;45.542;9.238;2022-10-04T01:24:33;34.22;;;20.48;;
25569;SDS011;17955;45.542;9.238;2022-10-04T01:27:01;31.35;;;18.67;;
25569;SDS011;17955;45.542;9.238;2022-10-04T01:29:29;33.67;;;20.50;;
25569;SDS011;17955;45.542;9.238;2022-10-04T01:31:58;34.70;;;19.10;;
25569;SDS011;17955;45.542;9.238;2022-10-04T01:34:26;35.72;;;19.58;;
25569;SDS011;17955;45.542;9.238;2022-10-04T01:36:55;33.45;;;18.83;;
25569;SDS011;17955;45.542;9.238;2022-10-04T01:39:24;34.58;;;19.50;;
25569;SDS011;17955;45.542;9.238;2022-10-04T01:41:55;27.52;;;19.55;;
25569;SDS011;17955;45.542;9.238;2022-10-04T01:44:28;31.30;;;18.15;;
25569;SDS011;17955;45.542;9.238;2022-10-04T01:46:57;29.55;;;17.92;;
25569;SDS011;17955;45.542;9.238;2022-10-04T01:49:29;29.17;;;18.67;;
25569;SDS011;17955;45.542;9.238;2022-10-04T01:51:58;30.48;;;18.40;;
25569;SDS011;17955;45.542;9.238;2022-10-04T01:54:32;30.38;;;18.30;;
25569;SDS011;17955;45.542;9.238;2022-10-04T01:57:05;33.72;;;19.23;;
25569;SDS011;17955;45.542;9.238;2022-10-04T01:59:39;29.17;;;18.17;;
25569;SDS011;17955;45.542;9.238;2022-10-04T02:02:16;26.58;;;17.20;;
25569;SDS011;17955;45.542;9.238;2022-10-04T02:04:48;29.38;;;18.17;;
25569;SDS011;17955;45.542;9.238;2022-10-04T02:07:18;29.80;;;19.05;;
25569;SDS011;17955;45.542;9.238;2022-10-04T02:09:47;33.78;;;20.02;;
25569;SDS011;17955;45.542;9.238;2022-10-04T02:12:20;35.42;;;19.45;;
25569;SDS011;17955;45.542;9.238;2022-10-04T02:14:48;32.90;;;19.83;;
25569;SDS011;17955;45.542;9.238;2022-10-04T02:17:18;34.97;;;20.75;;
25569;SDS011;17955;45.542;9.238;2022-10-04T02:19:48;30.30;;;19.85;;
25569;SDS011;17955;45.542;9.238;2022-10-04T02:22:15;34.60;;;20.00;;
25569;SDS011;17955;45.542;9.238;2022-10-04T02:24:44;35.40;;;20.90;;
25569;SDS011;17955;45.542;9.238;2022-10-04T02:27:14;32.20;;;21.15;;
25569;SDS011;17955;45.542;9.238;2022-10-04T02:29:43;38.28;;;20.98;;
25569;SDS011;17955;45.542;9.238;2022-10-04T02:32:10;33.40;;;21.23;;
25569;SDS011;17955;45.542;9.238;2022-10-04T02:34:57;31.02;;;19.80;;
25569;SDS011;17955;45.542;9.238;2022-10-04T02:37:25;38.47;;;22.00;;
25569;SDS011;17955;45.542;9.238;2022-10-04T02:39:55;34.83;;;21.70;;
25569;SDS011;17955;45.542;9.238;2022-10-04T02:42:32;33.97;;;21.52;;
25569;SDS011;17955;45.542;9.238;2022-10-04T02:45:06;31.58;;;21.08;;
25569;SDS011;17955;45.542;9.238;2022-10-04T02:47:41;33.30;;;21.00;;
25569;SDS011;17955;45.542;9.238;2022-10-04T02:50:18;35.05;;;21.52;;
25569;SDS011;17955;45.542;9.238;2022-10-04T02:52:52;33.00;;;21.05;;
25569;SDS011;17955;45.542;9.238;2022-10-04T02:55:23;30.63;;;21.08;;
25569;SDS011;17955;45.542;9.238;2022-10-04T02:57:53;32.85;;;21.85;;
25569;SDS011;17955;45.542;9.238;2022-10-04T03:00:22;32.45;;;21.05;;
25569;SDS011;17955;45.542;9.238;2022-10-04T03:03:10;31.33;;;20.15;;
25569;SDS011;17955;45.542;9.238;2022-10-04T03:05:42;31.98;;;20.50;;
25569;SDS011;17955;45.542;9.238;2022-10-04T03:08:12;31.52;;;20.73;;
25569;SDS011;17955;45.542;9.238;2022-10-04T03:10:40;31.45;;;20.38;;
25569;SDS011;17955;45.542;9.238;2022-10-04T03:13:08;34.88;;;19.00;;
25569;SDS011;17955;45.542;9.238;2022-10-04T03:15:37;29.77;;;20.15;;
25569;SDS011;17955;45.542;9.238;2022-10-04T03:18:05;30.80;;;20.30;;
25569;SDS011;17955;45.542;9.238;2022-10-04T03:20:34;29.60;;;19.38;;
25569;SDS011;17955;45.542;9.238;2022-10-04T03:23:02;28.20;;;18.95;;
25569;SDS011;17955;45.542;9.238;2022-10-04T03:25:34;33.42;;;19.27;;
25569;SDS011;17955;45.542;9.238;2022-10-04T03:28:07;26.85;;;18.40;;
25569;SDS011;17955;45.542;9.238;2022-10-04T03:30:34;28.50;;;18.85;;
25569;SDS011;17955;45.542;9.238;2022-10-04T03:33:03;28.40;;;18.25;;
25569;SDS011;17955;45.542;9.238;2022-10-04T03:35:32;25.48;;;16.70;;
25569;SDS011;17955;45.542;9.238;2022-10-04T03:38:03;30.38;;;17.42;;
25569;SDS011;17955;45.542;9.238;2022-10-04T03:40:34;30.20;;;18.38;;
25569;SDS011;17955;45.542;9.238;2022-10-04T03:43:03;29.52;;;17.77;;
25569;SDS011;17955;45.542;9.238;2022-10-04T03:45:32;29.05;;;17.65;;
25569;SDS011;17955;45.542;9.238;2022-10-04T03:48:02;28.05;;;17.10;;
25569;SDS011;17955;45.542;9.238;2022-10-04T03:50:33;30.00;;;18.30;;
25569;SDS011;17955;45.542;9.238;2022-10-04T03:53:06;26.08;;;15.90;;
25569;SDS011;17955;45.542;9.238;2022-10-04T03:55:38;34.33;;;16.90;;
25569;SDS011;17955;45.542;9.238;2022-10-04T03:58:08;29.48;;;16.08;;
25569;SDS011;17955;45.542;9.238;2022-10-04T04:00:37;26.17;;;17.75;;
25569;SDS011;17955;45.542;9.238;2022-10-04T04:03:12;32.70;;;18.15;;
25569;SDS011;17955;45.542;9.238;2022-10-04T04:05:45;25.42;;;16.48;;
25569;SDS011;17955;45.542;9.238;2022-10-04T04:08:16;30.27;;;16.42;;
25569;SDS011;17955;45.542;9.238;2022-10-04T04:10:52;23.58;;;16.17;;
25569;SDS011;17955;45.542;9.238;2022-10-04T04:13:22;25.35;;;17.70;;
25569;SDS011;17955;45.542;9.238;2022-10-04T04:15:52;31.85;;;16.63;;
25569;SDS011;17955;45.542;9.238;2022-10-04T04:18:22;28.65;;;17.02;;
25569;SDS011;17955;45.542;9.238;2022-10-04T04:20:50;26.25;;;17.80;;
25569;SDS011;17955;45.542;9.238;2022-10-04T04:23:25;32.95;;;16.92;;
25569;SDS011;17955;45.542;9.238;2022-10-04T04:25:56;31.38;;;17.65;;
25569;SDS011;17955;45.542;9.238;2022-10-04T04:28:28;28.25;;;17.45;;
25569;SDS011;17955;45.542;9.238;2022-10-04T04:31:00;26.27;;;17.25;;
25569;SDS011;17955;45.542;9.238;2022-10-04T04:33:31;29.33;;;17.17;;
25569;SDS011;17955;45.542;9.238;2022-10-04T04:36:09;27.98;;;18.58;;
25569;SDS011;17955;45.542;9.238;2022-10-04T04:38:39;24.83;;;16.90;;
25569;SDS011;17955;45.542;9.238;2022-10-04T04:41:27;29.95;;;17.17;;
25569;SDS011;17955;45.542;9.238;2022-10-04T04:43:56;30.05;;;17.60;;
25569;SDS011;17955;45.542;9.238;2022-10-04T04:46:23;26.08;;;17.25;;
25569;SDS011;17955;45.542;9.238;2022-10-04T04:48:53;30.23;;;16.98;;
25569;SDS011;17955;45.542;9.238;2022-10-04T04:51:26;25.23;;;16.85;;
25569;SDS011;17955;45.542;9.238;2022-10-04T04:53:55;26.50;;;17.00;;
25569;SDS011;17955;45.542;9.238;2022-10-04T04:56:24;28.52;;;16.92;;
25569;SDS011;17955;45.542;9.238;2022-10-04T04:58:53;29.17;;;17.55;;
25569;SDS011;17955;45.542;9.238;2022-10-04T05:01:24;28.40;;;16.40;;
25569;SDS011;17955;45.542;9.238;2022-10-04T05:04:02;27.70;;;16.60;;
25569;SDS011;17955;45.542;9.238;2022-10-04T05:06:31;27.52;;;17.38;;
25569;SDS011;17955;45.542;9.238;2022-10-04T05:08:59;28.20;;;17.67;;
25569;SDS011;17955;45.542;9.238;2022-10-04T05:11:26;30.92;;;18.48;;
25569;SDS011;17955;45.542;9.238;2022-10-04T05:13:57;25.77;;;16.23;;
25569;SDS011;17955;45.542;9.238;2022-10-04T05:16:32;28.75;;;17.48;;
25569;SDS011;17955;45.542;9.238;2022-10-04T05:19:04;27.20;;;17.48;;
25569;SDS011;17955;45.542;9.238;2022-10-04T05:21:34;28.80;;;16.40;;
25569;SDS011;17955;45.542;9.238;2022-10-04T05:24:06;28.80;;;18.05;;
25569;SDS011;17955;45.542;9.238;2022-10-04T05:26:36;26.77;;;17.53;;
25569;SDS011;17955;45.542;9.238;2022-10-04T05:29:06;27.45;;;17.50;;
25569;SDS011;17955;45.542;9.238;2022-10-04T05:31:39;26.08;;;17.38;;
25569;SDS011;17955;45.542;9.238;2022-10-04T05:34:20;29.13;;;18.15;;
25569;SDS011;17955;45.542;9.238;2022-10-04T05:40:05;31.65;;;17.40;;
25569;SDS011;17955;45.542;9.238;2022-10-04T05:42:48;32.35;;;17.65;;
25569;SDS011;17955;45.542;9.238;2022-10-04T05:45:20;33.70;;;18.45;;
25569;SDS011;17955;45.542;9.238;2022-10-04T05:47:50;32.50;;;18.42;;
25569;SDS011;17955;45.542;9.238;2022-10-04T05:50:20;28.13;;;16.92;;
25569;SDS011;17955;45.542;9.238;2022-10-04T05:52:54;31.17;;;18.13;;
25569;SDS011;17955;45.542;9.238;2022-10-04T05:55:50;26.23;;;17.80;;
25569;SDS011;17955;45.542;9.238;2022-10-04T05:58:31;30.98;;;17.77;;
25569;SDS011;17955;45.542;9.238;2022-10-04T06:01:21;28.38;;;17.27;;
25569;SDS011;17955;45.542;9.238;2022-10-04T06:04:03;29.45;;;17.63;;
25569;SDS011;17955;45.542;9.238;2022-10-04T06:06:52;28.15;;;18.33;;
25569;SDS011;17955;45.542;9.238;2022-10-04T06:09:34;34.00;;;17.75;;
25569;SDS011;17955;45.542;9.238;2022-10-04T06:12:25;32.65;;;18.10;;
25569;SDS011;17955;45.542;9.238;2022-10-04T06:15:07;32.90;;;18.75;;
25569;SDS011;17955;45.542;9.238;2022-10-04T06:17:45;26.42;;;16.95;;
25569;SDS011;17955;45.542;9.238;2022-10-04T06:23:20;29.77;;;16.70;;
25569;SDS011;17955;45.542;9.238;2022-10-04T06:25:50;28.05;;;16.42;;
25569;SDS011;17955;45.542;9.238;2022-10-04T06:28:23;35.67;;;18.60;;
25569;SDS011;17955;45.542;9.238;2022-10-04T06:31:00;41.60;;;20.75;;
25569;SDS011;17955;45.542;9.238;2022-10-04T06:33:42;33.47;;;17.92;;
25569;SDS011;17955;45.542;9.238;2022-10-04T06:45:36;28.48;;;16.27;;
25569;SDS011;17955;45.542;9.238;2022-10-04T06:51:15;23.45;;;15.30;;
25569;SDS011;17955;45.542;9.238;2022-10-04T06:54:03;29.67;;;14.60;;
25569;SDS011;17955;45.542;9.238;2022-10-04T06:56:45;25.92;;;16.48;;
25569;SDS011;17955;45.542;9.238;2022-10-04T07:02:18;21.70;;;15.10;;
25569;SDS011;17955;45.542;9.238;2022-10-04T07:04:48;24.00;;;15.63;;
25569;SDS011;17955;45.542;9.238;2022-10-04T07:07:27;29.60;;;15.93;;
25569;SDS011;17955;45.542;9.238;2022-10-04T07:10:15;25.58;;;16.13;;
25569;SDS011;17955;45.542;9.238;2022-10-04T07:12:51;28.60;;;15.80;;
25569;SDS011;17955;45.542;9.238;2022-10-04T07:15:27;27.33;;;14.90;;
25569;SDS011;17955;45.542;9.238;2022-10-04T07:17:57;25.67;;;14.23;;
25569;SDS011;17955;45.542;9.238;2022-10-04T07:20:31;32.20;;;15.90;;
25569;SDS011;17955;45.542;9.238;2022-10-04T07:23:01;32.17;;;15.95;;
25569;SDS011;17955;45.542;9.238;2022-10-04T07:25:34;27.00;;;14.77;;
25569;SDS011;17955;45.542;9.238;2022-10-04T07:28:09;29.45;;;17.30;;
25569;SDS011;17955;45.542;9.238;2022-10-04T07:31:00;25.33;;;15.48;;
25569;SDS011;17955;45.542;9.238;2022-10-04T07:33:30;23.55;;;14.60;;
25569;SDS011;17955;45.542;9.238;2022-10-04T07:36:02;19.77;;;13.07;;
25569;SDS011;17955;45.542;9.238;2022-10-04T07:38:35;19.95;;;13.05;;
25569;SDS011;17955;45.542;9.238;2022-10-04T07:41:05;32.38;;;13.10;;
25569;SDS011;17955;45.542;9.238;2022-10-04T07:43:39;18.60;;;11.63;;
25569;SDS011;17955;45.542;9.238;2022-10-04T07:46:18;19.42;;;12.57;;
25569;SDS011;17955;45.542;9.238;2022-10-04T07:49:02;27.00;;;13.07;;
25569;SDS011;17955;45.542;9.238;2022-10-04T07:51:31;23.88;;;12.60;;
25569;SDS011;17955;45.542;9.238;2022-10-04T07:54:09;17.27;;;10.85;;
25569;SDS011;17955;45.542;9.238;2022-10-04T07:56:43;17.48;;;11.45;;
25569;SDS011;17955;45.542;9.238;2022-10-04T07:59:22;18.42;;;11.32;;
25569;SDS011;17955;45.542;9.238;2022-10-04T08:02:06;20.20;;;11.75;;
25569;SDS011;17955;45.542;9.238;2022-10-04T08:04:43;18.63;;;10.90;;
25569;SDS011;17955;45.542;9.238;2022-10-04T08:07:18;16.35;;;10.68;;
25569;SDS011;17955;45.542;9.238;2022-10-04T08:09:53;23.63;;;11.55;;
25569;SDS011;17955;45.542;9.238;2022-10-04T08:12:30;18.52;;;11.20;;
25569;SDS011;17955;45.542;9.238;2022-10-04T08:15:20;23.33;;;10.40;;
25569;SDS011;17955;45.542;9.238;2022-10-04T08:18:14;15.70;;;10.38;;
25569;SDS011;17955;45.542;9.238;2022-10-04T08:20:53;20.35;;;10.57;;
25569;SDS011;17955;45.542;9.238;2022-10-04T08:23:34;22.17;;;10.25;;
25569;SDS011;17955;45.542;9.238;2022-10-04T08:26:14;22.98;;;10.80;;
25569;SDS011;17955;45.542;9.238;2022-10-04T08:28:52;17.88;;;9.95;;
25569;SDS011;17955;45.542;9.238;2022-10-04T08:31:54;23.60;;;10.18;;
25569;SDS011;17955;45.542;9.238;2022-10-04T08:34:32;16.92;;;10.68;;
25569;SDS011;17955;45.542;9.238;2022-10-04T08:37:12;20.15;;;9.18;;
25569;SDS011;17955;45.542;9.238;2022-10-04T08:42:55;18.90;;;8.93;;
25569;SDS011;17955;45.542;9.238;2022-10-04T08:45:49;16.80;;;9.50;;
25569;SDS011;17955;45.542;9.238;2022-10-04T08:48:47;13.57;;;8.98;;
25569;SDS011;17955;45.542;9.238;2022-10-04T08:58:11;15.85;;;10.20;;
25569;SDS011;17955;45.542;9.238;2022-10-04T09:00:45;19.60;;;9.45;;
25569;SDS011;17955;45.542;9.238;2022-10-04T09:06:29;14.70;;;8.75;;
25569;SDS011;17955;45.542;9.238;2022-10-04T09:18:16;14.82;;;9.15;;
25569;SDS011;17955;45.542;9.238;2022-10-04T09:20:52;18.58;;;10.05;;
25569;SDS011;17955;45.542;9.238;2022-10-04T09:23:34;16.52;;;9.45;;
25569;SDS011;17955;45.542;9.238;2022-10-04T09:26:29;19.38;;;9.55;;
25569;SDS011;17955;45.542;9.238;2022-10-04T09:29:17;23.33;;;8.88;;
25569;SDS011;17955;45.542;9.238;2022-10-04T09:35:11;22.88;;;9.77;;
25569;SDS011;17955;45.542;9.238;2022-10-04T09:38:00;20.10;;;10.73;;
25569;SDS011;17955;45.542;9.238;2022-10-04T09:43:55;23.83;;;11.05;;
25569;SDS011;17955;45.542;9.238;2022-10-04T09:50:03;20.83;;;10.48;;
25569;SDS011;17955;45.542;9.238;2022-10-04T09:53:03;27.45;;;13.30;;
25569;SDS011;17955;45.542;9.238;2022-10-04T09:55:42;20.35;;;11.82;;
25569;SDS011;17955;45.542;9.238;2022-10-04T09:58:32;22.33;;;12.77;;
25569;SDS011;17955;45.542;9.238;2022-10-04T10:01:11;18.55;;;12.68;;
25569;SDS011;17955;45.542;9.238;2022-10-04T10:03:59;21.63;;;12.02;;
25569;SDS011;17955;45.542;9.238;2022-10-04T10:06:59;21.65;;;11.82;;
25569;SDS011;17955;45.542;9.238;2022-10-04T10:09:39;18.42;;;11.18;;
25569;SDS011;17955;45.542;9.238;2022-10-04T10:12:34;14.20;;;9.95;;
25569;SDS011;17955;45.542;9.238;2022-10-04T10:15:43;17.52;;;11.50;;
25569;SDS011;17955;45.542;9.238;2022-10-04T10:18:24;20.83;;;12.57;;
25569;SDS011;17955;45.542;9.238;2022-10-04T10:21:18;22.70;;;12.20;;
25569;SDS011;17955;45.542;9.238;2022-10-04T10:24:08;21.13;;;11.18;;
25569;SDS011;17955;45.542;9.238;2022-10-04T10:27:07;20.48;;;11.05;;
25569;SDS011;17955;45.542;9.238;2022-10-04T10:30:10;23.67;;;12.43;;
25569;SDS011;17955;45.542;9.238;2022-10-04T10:32:59;23.90;;;12.10;;
25569;SDS011;17955;45.542;9.238;2022-10-04T10:38:49;23.77;;;13.70;;
25569;SDS011;17955;45.542;9.238;2022-10-04T10:41:42;25.38;;;13.90;;
25569;SDS011;17955;45.542;9.238;2022-10-04T10:44:27;24.98;;;13.73;;
25569;SDS011;17955;45.542;9.238;2022-10-04T10:47:10;25.35;;;14.32;;
25569;SDS011;17955;45.542;9.238;2022-10-04T10:50:01;26.08;;;14.02;;
25569;SDS011;17955;45.542;9.238;2022-10-04T11:04:57;23.08;;;15.27;;
25569;SDS011;17955;45.542;9.238;2022-10-04T11:07:47;21.75;;;14.88;;
25569;SDS011;17955;45.542;9.238;2022-10-04T11:10:32;20.25;;;15.27;;
25569;SDS011;17955;45.542;9.238;2022-10-04T11:16:34;25.50;;;15.48;;
25569;SDS011;17955;45.542;9.238;2022-10-04T11:25:44;23.23;;;16.38;;
25569;SDS011;17955;45.542;9.238;2022-10-04T11:28:24;21.13;;;15.57;;
25569;SDS011;17955;45.542;9.238;2022-10-04T11:31:09;24.90;;;16.52;;
25569;SDS011;17955;45.542;9.238;2022-10-04T11:36:49;22.30;;;14.95;;
25569;SDS011;17955;45.542;9.238;2022-10-04T11:42:29;23.63;;;16.85;;
25569;SDS011;17955;45.542;9.238;2022-10-04T11:48:00;24.40;;;18.10;;
25569;SDS011;17955;45.542;9.238;2022-10-04T11:50:43;29.45;;;17.95;;
25569;SDS011;17955;45.542;9.238;2022-10-04T11:56:20;26.85;;;18.75;;
25569;SDS011;17955;45.542;9.238;2022-10-04T11:59:14;26.00;;;18.17;;
25569;SDS011;17955;45.542;9.238;2022-10-04T12:05:16;27.10;;;18.95;;
25569;SDS011;17955;45.542;9.238;2022-10-04T12:08:00;26.30;;;19.83;;
25569;SDS011;17955;45.542;9.238;2022-10-04T12:10:43;28.58;;;19.48;;
25569;SDS011;17955;45.542;9.238;2022-10-04T12:13:46;32.65;;;20.40;;
25569;SDS011;17955;45.542;9.238;2022-10-04T12:16:31;27.13;;;17.95;;
25569;SDS011;17955;45.542;9.238;2022-10-04T12:19:15;32.75;;;19.40;;
25569;SDS011;17955;45.542;9.238;2022-10-04T12:22:18;29.88;;;20.98;;
25569;SDS011;17955;45.542;9.238;2022-10-04T12:25:13;31.08;;;20.88;;
25569;SDS011;17955;45.542;9.238;2022-10-04T12:28:16;27.15;;;20.25;;
25569;SDS011;17955;45.542;9.238;2022-10-04T12:31:10;30.15;;;21.13;;
25569;SDS011;17955;45.542;9.238;2022-10-04T12:33:48;34.78;;;24.50;;
25569;SDS011;17955;45.542;9.238;2022-10-04T12:36:25;32.92;;;24.27;;
25569;SDS011;17955;45.542;9.238;2022-10-04T12:39:22;34.78;;;25.02;;
25569;SDS011;17955;45.542;9.238;2022-10-04T12:42:06;34.10;;;24.38;;
25569;SDS011;17955;45.542;9.238;2022-10-04T12:44:48;37.60;;;26.27;;
25569;SDS011;17955;45.542;9.238;2022-10-04T12:50:20;38.38;;;23.42;;
25569;SDS011;17955;45.542;9.238;2022-10-04T12:52:58;35.22;;;24.33;;
25569;SDS011;17955;45.542;9.238;2022-10-04T12:58:41;39.97;;;24.77;;
25569;SDS011;17955;45.542;9.238;2022-10-04T13:01:30;35.95;;;25.40;;
25569;SDS011;17955;45.542;9.238;2022-10-04T13:04:18;36.03;;;25.85;;
25569;SDS011;17955;45.542;9.238;2022-10-04T13:07:00;36.40;;;27.08;;
25569;SDS011;17955;45.542;9.238;2022-10-04T13:09:55;36.05;;;26.63;;
25569;SDS011;17955;45.542;9.238;2022-10-04T13:12:39;37.35;;;28.15;;
25569;SDS011;17955;45.542;9.238;2022-10-04T13:15:27;44.00;;;27.88;;
25569;SDS011;17955;45.542;9.238;2022-10-04T13:18:03;51.30;;;27.38;;
25569;SDS011;17955;45.542;9.238;2022-10-04T13:20:44;47.55;;;27.02;;
25569;SDS011;17955;45.542;9.238;2022-10-04T13:23:20;41.38;;;27.30;;
25569;SDS011;17955;45.542;9.238;2022-10-04T13:26:07;37.55;;;26.90;;
25569;SDS011;17955;45.542;9.238;2022-10-04T13:28:51;38.03;;;25.60;;
25569;SDS011;17955;45.542;9.238;2022-10-04T13:31:29;39.08;;;26.42;;
25569;SDS011;17955;45.542;9.238;2022-10-04T13:34:02;42.00;;;26.33;;
25569;SDS011;17955;45.542;9.238;2022-10-04T13:36:43;38.35;;;24.80;;
25569;SDS011;17955;45.542;9.238;2022-10-04T13:39:30;39.65;;;26.60;;
25569;SDS011;17955;45.542;9.238;2022-10-04T13:42:17;41.13;;;25.83;;
25569;SDS011;17955;45.542;9.238;2022-10-04T13:45:01;36.35;;;24.77;;
25569;SDS011;17955;45.542;9.238;2022-10-04T13:47:46;37.05;;;24.85;;
25569;SDS011;17955;45.542;9.238;2022-10-04T13:50:34;35.92;;;24.02;;
25569;SDS011;17955;45.542;9.238;2022-10-04T13:53:15;35.80;;;25.92;;
25569;SDS011;17955;45.542;9.238;2022-10-04T13:56:14;36.40;;;24.40;;
25569;SDS011;17955;45.542;9.238;2022-10-04T13:59:03;37.67;;;25.45;;
25569;SDS011;17955;45.542;9.238;2022-10-04T14:01:40;48.08;;;24.30;;
25569;SDS011;17955;45.542;9.238;2022-10-04T14:04:56;39.00;;;24.37;;
25569;SDS011;17955;45.542;9.238;2022-10-04T14:08:00;40.17;;;25.23;;
25569;SDS011;17955;45.542;9.238;2022-10-04T14:11:02;41.80;;;24.95;;
25569;SDS011;17955;45.542;9.238;2022-10-04T14:13:47;40.25;;;25.27;;
25569;SDS011;17955;45.542;9.238;2022-10-04T14:16:29;39.42;;;25.90;;
25569;SDS011;17955;45.542;9.238;2022-10-04T14:31:50;40.95;;;24.30;;
25569;SDS011;17955;45.542;9.238;2022-10-04T14:34:54;48.22;;;25.00;;
25569;SDS011;17955;45.542;9.238;2022-10-04T14:37:35;39.97;;;24.23;;
25569;SDS011;17955;45.542;9.238;2022-10-04T14:40:42;37.67;;;23.55;;
25569;SDS011;17955;45.542;9.238;2022-10-04T14:43:29;42.42;;;24.30;;
25569;SDS011;17955;45.542;9.238;2022-10-04T14:46:19;37.78;;;22.73;;
25569;SDS011;17955;45.542;9.238;2022-10-04T14:48:59;40.25;;;23.08;;
25569;SDS011;17955;45.542;9.238;2022-10-04T14:51:48;36.10;;;22.77;;
25569;SDS011;17955;45.542;9.238;2022-10-04T14:54:31;35.00;;;22.92;;
25569;SDS011;17955;45.542;9.238;2022-10-04T14:57:06;37.92;;;23.73;;
25569;SDS011;17955;45.542;9.238;2022-10-04T15:02:53;35.95;;;24.33;;
25569;SDS011;17955;45.542;9.238;2022-10-04T15:05:44;34.67;;;23.92;;
25569;SDS011;17955;45.542;9.238;2022-10-04T15:08:40;53.40;;;28.08;;
25569;SDS011;17955;45.542;9.238;2022-10-04T15:11:33;37.80;;;25.25;;
25569;SDS011;17955;45.542;9.238;2022-10-04T15:16:50;40.92;;;23.02;;
25569;SDS011;17955;45.542;9.238;2022-10-04T15:19:25;40.30;;;21.98;;
25569;SDS011;17955;45.542;9.238;2022-10-04T15:21:59;36.70;;;22.63;;
25569;SDS011;17955;45.542;9.238;2022-10-04T15:24:30;34.67;;;21.00;;
25569;SDS011;17955;45.542;9.238;2022-10-04T15:33:16;35.17;;;22.42;;
25569;SDS011;17955;45.542;9.238;2022-10-04T15:36:02;36.40;;;22.10;;
25569;SDS011;17955;45.542;9.238;2022-10-04T15:38:43;33.03;;;20.40;;
25569;SDS011;17955;45.542;9.238;2022-10-04T15:41:18;32.60;;;21.42;;
25569;SDS011;17955;45.542;9.238;2022-10-04T15:47:12;38.60;;;19.20;;
25569;SDS011;17955;45.542;9.238;2022-10-04T15:49:56;35.92;;;20.95;;
25569;SDS011;17955;45.542;9.238;2022-10-04T16:00:47;36.50;;;20.77;;
25569;SDS011;17955;45.542;9.238;2022-10-04T16:03:27;27.58;;;19.80;;
25569;SDS011;17955;45.542;9.238;2022-10-04T16:06:07;30.92;;;20.15;;
25569;SDS011;17955;45.542;9.238;2022-10-04T16:08:51;27.13;;;18.77;;
25569;SDS011;17955;45.542;9.238;2022-10-04T16:14:39;28.23;;;18.50;;
25569;SDS011;17955;45.542;9.238;2022-10-04T16:23:27;30.63;;;18.90;;
25569;SDS011;17955;45.542;9.238;2022-10-04T16:25:57;35.40;;;18.30;;
25569;SDS011;17955;45.542;9.238;2022-10-04T16:28:37;30.83;;;18.85;;
25569;SDS011;17955;45.542;9.238;2022-10-04T16:31:36;32.25;;;17.95;;
25569;SDS011;17955;45.542;9.238;2022-10-04T16:37:25;27.23;;;18.42;;
25569;SDS011;17955;45.542;9.238;2022-10-04T16:40:02;26.42;;;17.48;;
25569;SDS011;17955;45.542;9.238;2022-10-04T16:42:54;24.30;;;16.73;;
25569;SDS011;17955;45.542;9.238;2022-10-04T16:45:34;30.13;;;19.40;;
25569;SDS011;17955;45.542;9.238;2022-10-04T16:48:22;27.50;;;18.05;;
25569;SDS011;17955;45.542;9.238;2022-10-04T16:51:02;26.15;;;16.77;;
25569;SDS011;17955;45.542;9.238;2022-10-04T16:53:48;27.33;;;16.70;;
25569;SDS011;17955;45.542;9.238;2022-10-04T16:56:23;34.75;;;18.63;;
25569;SDS011;17955;45.542;9.238;2022-10-04T16:58:52;43.97;;;20.90;;
25569;SDS011;17955;45.542;9.238;2022-10-04T17:07:31;31.52;;;17.15;;
25569;SDS011;17955;45.542;9.238;2022-10-04T17:10:17;26.23;;;16.92;;
25569;SDS011;17955;45.542;9.238;2022-10-04T17:12:55;31.83;;;18.52;;
25569;SDS011;17955;45.542;9.238;2022-10-04T17:15:43;32.90;;;18.45;;
25569;SDS011;17955;45.542;9.238;2022-10-04T17:18:17;29.40;;;18.50;;
25569;SDS011;17955;45.542;9.238;2022-10-04T17:20:53;24.90;;;17.02;;
25569;SDS011;17955;45.542;9.238;2022-10-04T17:23:27;24.67;;;17.63;;
25569;SDS011;17955;45.542;9.238;2022-10-04T17:26:35;40.78;;;21.52;;
25569;SDS011;17955;45.542;9.238;2022-10-04T17:29:18;36.60;;;19.23;;
25569;SDS011;17955;45.542;9.238;2022-10-04T17:31:58;51.00;;;23.42;;
25569;SDS011;17955;45.542;9.238;2022-10-04T17:37:10;34.70;;;19.35;;
25569;SDS011;17955;45.542;9.238;2022-10-04T17:39:46;30.48;;;18.63;;
25569;SDS011;17955;45.542;9.238;2022-10-04T17:42:20;29.73;;;18.45;;
25569;SDS011;17955;45.542;9.238;2022-10-04T17:47:33;28.73;;;18.15;;
25569;SDS011;17955;45.542;9.238;2022-10-04T17:50:18;34.40;;;19.70;;
25569;SDS011;17955;45.542;9.238;2022-10-04T17:53:10;33.33;;;19.58;;
25569;SDS011;17955;45.542;9.238;2022-10-04T17:55:57;27.70;;;18.65;;
25569;SDS011;17955;45.542;9.238;2022-10-04T17:58:29;33.63;;;19.63;;
25569;SDS011;17955;45.542;9.238;2022-10-04T18:01:07;31.77;;;18.98;;
25569;SDS011;17955;45.542;9.238;2022-10-04T18:03:39;26.77;;;18.30;;
25569;SDS011;17955;45.542;9.238;2022-10-04T18:06:12;30.42;;;19.48;;
25569;SDS011;17955;45.542;9.238;2022-10-04T18:08:44;35.10;;;20.52;;
25569;SDS011;17955;45.542;9.238;2022-10-04T18:11:19;29.77;;;19.45;;
25569;SDS011;17955;45.542;9.238;2022-10-04T18:13:54;31.17;;;18.80;;
25569;SDS011;17955;45.542;9.238;2022-10-04T18:16:29;26.90;;;18.75;;
25569;SDS011;17955;45.542;9.238;2022-10-04T18:19:00;37.20;;;19.80;;
25569;SDS011;17955;45.542;9.238;2022-10-04T18:21:50;39.20;;;20.00;;